Terminal Aerodrome Forecast
Issued by NWS

Home | Current Version | Previous Version | Text Only | Print | Product List | Glossary On
Versions: 1 2 3 4 5 6 7 8 9 10 11 12 13 14 15 16
000
FTUS44 KLIX 201700
TAFGPT
TAF
KGPT 201720Z 2018/2118 03011KT P6SM BKN008
     FM202100 03009KT P6SM BKN015
     FM210600 04009KT P6SM BKN005
      TEMPO 2109/2113 5SM BR
     FM211500 05007KT P6SM BKN010=

USA.gov is the U.S. government's official web portal to all federal, state and local government web resources and services.